sensor_id;sensor_type;location;lat;lon;timestamp;P1;durP1;ratioP1;P2;durP2;ratioP2
49900;SDS011;35789;48.414;12.768;2023-09-19T00:00:00;7.5;;;2.6;;
49900;SDS011;35789;48.414;12.768;2023-09-19T00:05:00;6.2;;;2.7;;
49900;SDS011;35789;48.414;12.768;2023-09-19T00:10:00;6.2;;;2.7;;
49900;SDS011;35789;48.414;12.768;2023-09-19T00:15:00;6.2;;;2.7;;
49900;SDS011;35789;48.414;12.768;2023-09-19T00:20:00;6.2;;;2.7;;
49900;SDS011;35789;48.414;12.768;2023-09-19T00:25:00;6.2;;;2.7;;
49900;SDS011;35789;48.414;12.768;2023-09-19T00:30:00;6.2;;;2.7;;
49900;SDS011;35789;48.414;12.768;2023-09-19T00:35:00;7.4;;;2.5;;
49900;SDS011;35789;48.414;12.768;2023-09-19T00:40:00;7.4;;;2.5;;
49900;SDS011;35789;48.414;12.768;2023-09-19T00:45:00;7.4;;;2.5;;
49900;SDS011;35789;48.414;12.768;2023-09-19T00:50:00;7.4;;;2.5;;
49900;SDS011;35789;48.414;12.768;2023-09-19T00:55:00;7.4;;;2.5;;
49900;SDS011;35789;48.414;12.768;2023-09-19T01:00:01;7.4;;;2.5;;
49900;SDS011;35789;48.414;12.768;2023-09-19T01:05:01;5.6;;;2.2;;
49900;SDS011;35789;48.414;12.768;2023-09-19T01:10:01;5.6;;;2.2;;
49900;SDS011;35789;48.414;12.768;2023-09-19T01:15:06;5.6;;;2.2;;
49900;SDS011;35789;48.414;12.768;2023-09-19T01:20:13;5.6;;;2.2;;
49900;SDS011;35789;48.414;12.768;2023-09-19T01:25:19;5.6;;;2.2;;
49900;SDS011;35789;48.414;12.768;2023-09-19T01:30:06;5.6;;;2.2;;
49900;SDS011;35789;48.414;12.768;2023-09-19T01:35:00;7.1;;;2.1;;
49900;SDS011;35789;48.414;12.768;2023-09-19T01:40:03;7.1;;;2.1;;
49900;SDS011;35789;48.414;12.768;2023-09-19T01:45:05;7.1;;;2.1;;
49900;SDS011;35789;48.414;12.768;2023-09-19T01:50:09;7.1;;;2.1;;
49900;SDS011;35789;48.414;12.768;2023-09-19T01:55:05;7.1;;;2.1;;
49900;SDS011;35789;48.414;12.768;2023-09-19T02:00:02;7.1;;;2.1;;
49900;SDS011;35789;48.414;12.768;2023-09-19T02:05:00;9.0;;;2.4;;
49900;SDS011;35789;48.414;12.768;2023-09-19T02:10:00;9.0;;;2.4;;
49900;SDS011;35789;48.414;12.768;2023-09-19T02:15:00;9.0;;;2.4;;
49900;SDS011;35789;48.414;12.768;2023-09-19T02:20:00;9.0;;;2.4;;
49900;SDS011;35789;48.414;12.768;2023-09-19T02:25:00;9.0;;;2.4;;
49900;SDS011;35789;48.414;12.768;2023-09-19T02:30:00;19.8;;;2.8;;
49900;SDS011;35789;48.414;12.768;2023-09-19T02:35:00;19.8;;;2.8;;
49900;SDS011;35789;48.414;12.768;2023-09-19T02:40:00;19.8;;;2.8;;
49900;SDS011;35789;48.414;12.768;2023-09-19T02:45:00;19.8;;;2.8;;
49900;SDS011;35789;48.414;12.768;2023-09-19T02:50:00;19.8;;;2.8;;
49900;SDS011;35789;48.414;12.768;2023-09-19T02:55:00;19.8;;;2.8;;
49900;SDS011;35789;48.414;12.768;2023-09-19T03:00:00;6.3;;;2.5;;
49900;SDS011;35789;48.414;12.768;2023-09-19T03:05:00;6.3;;;2.5;;
49900;SDS011;35789;48.414;12.768;2023-09-19T03:10:00;6.3;;;2.5;;
49900;SDS011;35789;48.414;12.768;2023-09-19T03:15:01;6.3;;;2.5;;
49900;SDS011;35789;48.414;12.768;2023-09-19T03:20:00;6.3;;;2.5;;
49900;SDS011;35789;48.414;12.768;2023-09-19T03:25:00;6.3;;;2.5;;
49900;SDS011;35789;48.414;12.768;2023-09-19T03:30:00;8.8;;;2.9;;
49900;SDS011;35789;48.414;12.768;2023-09-19T03:35:00;8.8;;;2.9;;
49900;SDS011;35789;48.414;12.768;2023-09-19T03:40:00;8.8;;;2.9;;
49900;SDS011;35789;48.414;12.768;2023-09-19T03:45:00;8.8;;;2.9;;
49900;SDS011;35789;48.414;12.768;2023-09-19T03:50:00;8.8;;;2.9;;
49900;SDS011;35789;48.414;12.768;2023-09-19T03:55:00;8.8;;;2.9;;
49900;SDS011;35789;48.414;12.768;2023-09-19T04:00:00;5.9;;;2.7;;
49900;SDS011;35789;48.414;12.768;2023-09-19T04:05:00;5.9;;;2.7;;
49900;SDS011;35789;48.414;12.768;2023-09-19T04:10:00;5.9;;;2.7;;
49900;SDS011;35789;48.414;12.768;2023-09-19T04:15:00;5.9;;;2.7;;
49900;SDS011;35789;48.414;12.768;2023-09-19T04:20:00;5.9;;;2.7;;
49900;SDS011;35789;48.414;12.768;2023-09-19T04:25:00;5.9;;;2.7;;
49900;SDS011;35789;48.414;12.768;2023-09-19T04:30:00;5.9;;;2.8;;
49900;SDS011;35789;48.414;12.768;2023-09-19T04:35:00;5.9;;;2.8;;
49900;SDS011;35789;48.414;12.768;2023-09-19T04:40:00;5.9;;;2.8;;
49900;SDS011;35789;48.414;12.768;2023-09-19T04:45:00;5.9;;;2.8;;
49900;SDS011;35789;48.414;12.768;2023-09-19T04:50:00;5.9;;;2.8;;
49900;SDS011;35789;48.414;12.768;2023-09-19T04:55:01;5.9;;;2.8;;
49900;SDS011;35789;48.414;12.768;2023-09-19T05:00:00;5.5;;;2.7;;
49900;SDS011;35789;48.414;12.768;2023-09-19T05:05:00;5.5;;;2.7;;
49900;SDS011;35789;48.414;12.768;2023-09-19T05:10:00;5.5;;;2.7;;
49900;SDS011;35789;48.414;12.768;2023-09-19T05:15:00;5.5;;;2.7;;
49900;SDS011;35789;48.414;12.768;2023-09-19T05:20:00;5.5;;;2.7;;
49900;SDS011;35789;48.414;12.768;2023-09-19T05:25:00;5.5;;;2.7;;
49900;SDS011;35789;48.414;12.768;2023-09-19T05:30:00;8.5;;;3.4;;
49900;SDS011;35789;48.414;12.768;2023-09-19T05:35:00;8.5;;;3.4;;
49900;SDS011;35789;48.414;12.768;2023-09-19T05:40:00;8.5;;;3.4;;
49900;SDS011;35789;48.414;12.768;2023-09-19T05:45:00;8.5;;;3.4;;
49900;SDS011;35789;48.414;12.768;2023-09-19T05:50:00;8.5;;;3.4;;
49900;SDS011;35789;48.414;12.768;2023-09-19T05:55:00;8.5;;;3.4;;
49900;SDS011;35789;48.414;12.768;2023-09-19T06:00:00;5.2;;;2.3;;
49900;SDS011;35789;48.414;12.768;2023-09-19T06:05:00;5.2;;;2.3;;
49900;SDS011;35789;48.414;12.768;2023-09-19T06:10:00;5.2;;;2.3;;
49900;SDS011;35789;48.414;12.768;2023-09-19T06:15:00;5.2;;;2.3;;
49900;SDS011;35789;48.414;12.768;2023-09-19T06:20:00;5.2;;;2.3;;
49900;SDS011;35789;48.414;12.768;2023-09-19T06:25:00;5.2;;;2.3;;
49900;SDS011;35789;48.414;12.768;2023-09-19T06:30:00;5.8;;;2.2;;
49900;SDS011;35789;48.414;12.768;2023-09-19T06:35:00;5.8;;;2.2;;
49900;SDS011;35789;48.414;12.768;2023-09-19T06:40:00;5.8;;;2.2;;
49900;SDS011;35789;48.414;12.768;2023-09-19T06:45:00;5.8;;;2.2;;
49900;SDS011;35789;48.414;12.768;2023-09-19T06:50:00;5.8;;;2.2;;
49900;SDS011;35789;48.414;12.768;2023-09-19T06:55:00;5.8;;;2.2;;
49900;SDS011;35789;48.414;12.768;2023-09-19T07:00:00;6.0;;;2.2;;
49900;SDS011;35789;48.414;12.768;2023-09-19T07:05:00;6.0;;;2.2;;
49900;SDS011;35789;48.414;12.768;2023-09-19T07:10:00;6.0;;;2.2;;
49900;SDS011;35789;48.414;12.768;2023-09-19T07:15:00;6.0;;;2.2;;
49900;SDS011;35789;48.414;12.768;2023-09-19T07:20:00;6.0;;;2.2;;
49900;SDS011;35789;48.414;12.768;2023-09-19T07:25:00;6.0;;;2.2;;
49900;SDS011;35789;48.414;12.768;2023-09-19T07:30:00;6.4;;;2.1;;
49900;SDS011;35789;48.414;12.768;2023-09-19T07:35:00;6.4;;;2.1;;
49900;SDS011;35789;48.414;12.768;2023-09-19T07:40:00;6.4;;;2.1;;
49900;SDS011;35789;48.414;12.768;2023-09-19T07:45:00;6.4;;;2.1;;
49900;SDS011;35789;48.414;12.768;2023-09-19T07:50:00;6.4;;;2.1;;
49900;SDS011;35789;48.414;12.768;2023-09-19T07:55:00;6.4;;;2.1;;
49900;SDS011;35789;48.414;12.768;2023-09-19T08:00:00;5.0;;;2.2;;
49900;SDS011;35789;48.414;12.768;2023-09-19T08:05:00;5.0;;;2.2;;
49900;SDS011;35789;48.414;12.768;2023-09-19T08:10:00;5.0;;;2.2;;
49900;SDS011;35789;48.414;12.768;2023-09-19T08:15:00;5.0;;;2.2;;
49900;SDS011;35789;48.414;12.768;2023-09-19T08:20:00;5.0;;;2.2;;
49900;SDS011;35789;48.414;12.768;2023-09-19T08:25:00;5.0;;;2.2;;
49900;SDS011;35789;48.414;12.768;2023-09-19T08:30:00;4.2;;;1.8;;
49900;SDS011;35789;48.414;12.768;2023-09-19T08:35:00;4.2;;;1.8;;
49900;SDS011;35789;48.414;12.768;2023-09-19T08:40:00;4.2;;;1.8;;
49900;SDS011;35789;48.414;12.768;2023-09-19T08:45:01;4.2;;;1.8;;
49900;SDS011;35789;48.414;12.768;2023-09-19T08:50:04;4.2;;;1.8;;
49900;SDS011;35789;48.414;12.768;2023-09-19T08:55:02;4.2;;;1.8;;
49900;SDS011;35789;48.414;12.768;2023-09-19T09:00:01;4.7;;;1.9;;
49900;SDS011;35789;48.414;12.768;2023-09-19T09:05:01;4.7;;;1.9;;
49900;SDS011;35789;48.414;12.768;2023-09-19T09:10:02;4.7;;;1.9;;
49900;SDS011;35789;48.414;12.768;2023-09-19T09:15:00;4.7;;;1.9;;
49900;SDS011;35789;48.414;12.768;2023-09-19T09:20:00;4.7;;;1.9;;
49900;SDS011;35789;48.414;12.768;2023-09-19T09:25:00;4.7;;;1.9;;
49900;SDS011;35789;48.414;12.768;2023-09-19T09:30:00;6.2;;;1.7;;
49900;SDS011;35789;48.414;12.768;2023-09-19T09:35:01;6.2;;;1.7;;
49900;SDS011;35789;48.414;12.768;2023-09-19T09:40:01;6.2;;;1.7;;
49900;SDS011;35789;48.414;12.768;2023-09-19T09:45:12;6.2;;;1.7;;
49900;SDS011;35789;48.414;12.768;2023-09-19T09:50:00;6.2;;;1.7;;
49900;SDS011;35789;48.414;12.768;2023-09-19T09:55:01;6.2;;;1.7;;
49900;SDS011;35789;48.414;12.768;2023-09-19T10:00:01;4.2;;;1.4;;
49900;SDS011;35789;48.414;12.768;2023-09-19T10:05:11;4.2;;;1.4;;
49900;SDS011;35789;48.414;12.768;2023-09-19T10:10:01;4.2;;;1.4;;
49900;SDS011;35789;48.414;12.768;2023-09-19T10:15:02;4.2;;;1.4;;
49900;SDS011;35789;48.414;12.768;2023-09-19T10:20:02;4.2;;;1.4;;
49900;SDS011;35789;48.414;12.768;2023-09-19T10:25:00;4.2;;;1.4;;
49900;SDS011;35789;48.414;12.768;2023-09-19T10:30:01;5.4;;;1.6;;
49900;SDS011;35789;48.414;12.768;2023-09-19T10:35:01;5.4;;;1.6;;
49900;SDS011;35789;48.414;12.768;2023-09-19T10:40:01;5.4;;;1.6;;
49900;SDS011;35789;48.414;12.768;2023-09-19T10:45:02;5.4;;;1.6;;
49900;SDS011;35789;48.414;12.768;2023-09-19T10:50:01;5.4;;;1.6;;
49900;SDS011;35789;48.414;12.768;2023-09-19T10:55:00;5.4;;;1.6;;
49900;SDS011;35789;48.414;12.768;2023-09-19T11:00:02;3.8;;;1.4;;
49900;SDS011;35789;48.414;12.768;2023-09-19T11:05:11;3.8;;;1.4;;
49900;SDS011;35789;48.414;12.768;2023-09-19T11:10:00;3.8;;;1.4;;
49900;SDS011;35789;48.414;12.768;2023-09-19T11:15:00;3.8;;;1.4;;
49900;SDS011;35789;48.414;12.768;2023-09-19T11:35:06;3.5;;;1.4;;
49900;SDS011;35789;48.414;12.768;2023-09-19T11:40:08;3.5;;;1.4;;
49900;SDS011;35789;48.414;12.768;2023-09-19T11:45:00;3.5;;;1.4;;
49900;SDS011;35789;48.414;12.768;2023-09-19T11:50:01;3.5;;;1.4;;
49900;SDS011;35789;48.414;12.768;2023-09-19T11:55:00;3.5;;;1.4;;
49900;SDS011;35789;48.414;12.768;2023-09-19T12:00:01;3.8;;;1.4;;
49900;SDS011;35789;48.414;12.768;2023-09-19T12:05:00;3.8;;;1.4;;
49900;SDS011;35789;48.414;12.768;2023-09-19T12:10:03;3.8;;;1.4;;
49900;SDS011;35789;48.414;12.768;2023-09-19T12:15:00;3.8;;;1.4;;
49900;SDS011;35789;48.414;12.768;2023-09-19T12:20:00;3.8;;;1.4;;
49900;SDS011;35789;48.414;12.768;2023-09-19T12:25:05;3.8;;;1.4;;
49900;SDS011;35789;48.414;12.768;2023-09-19T12:30:01;3.4;;;1.2;;
49900;SDS011;35789;48.414;12.768;2023-09-19T12:35:00;3.4;;;1.2;;
49900;SDS011;35789;48.414;12.768;2023-09-19T12:40:04;3.4;;;1.2;;
49900;SDS011;35789;48.414;12.768;2023-09-19T12:45:00;3.4;;;1.2;;
49900;SDS011;35789;48.414;12.768;2023-09-19T12:50:09;3.4;;;1.2;;
49900;SDS011;35789;48.414;12.768;2023-09-19T12:55:00;3.4;;;1.2;;
49900;SDS011;35789;48.414;12.768;2023-09-19T13:00:00;3.9;;;1.1;;
49900;SDS011;35789;48.414;12.768;2023-09-19T13:05:00;3.9;;;1.1;;
49900;SDS011;35789;48.414;12.768;2023-09-19T13:10:04;3.9;;;1.1;;
49900;SDS011;35789;48.414;12.768;2023-09-19T13:15:07;3.9;;;1.1;;
49900;SDS011;35789;48.414;12.768;2023-09-19T13:20:00;3.9;;;1.1;;
49900;SDS011;35789;48.414;12.768;2023-09-19T13:25:00;3.9;;;1.1;;
49900;SDS011;35789;48.414;12.768;2023-09-19T13:30:00;2.8;;;1.1;;
49900;SDS011;35789;48.414;12.768;2023-09-19T13:35:00;2.8;;;1.1;;
49900;SDS011;35789;48.414;12.768;2023-09-19T13:40:00;2.8;;;1.1;;
49900;SDS011;35789;48.414;12.768;2023-09-19T13:45:00;2.8;;;1.1;;
49900;SDS011;35789;48.414;12.768;2023-09-19T13:50:02;2.8;;;1.1;;
49900;SDS011;35789;48.414;12.768;2023-09-19T13:55:00;2.8;;;1.1;;
49900;SDS011;35789;48.414;12.768;2023-09-19T14:00:00;4.1;;;1.5;;
49900;SDS011;35789;48.414;12.768;2023-09-19T14:05:00;4.1;;;1.5;;
49900;SDS011;35789;48.414;12.768;2023-09-19T14:10:00;4.1;;;1.5;;
49900;SDS011;35789;48.414;12.768;2023-09-19T14:15:00;4.1;;;1.5;;
49900;SDS011;35789;48.414;12.768;2023-09-19T14:20:00;4.1;;;1.5;;
49900;SDS011;35789;48.414;12.768;2023-09-19T14:25:00;4.1;;;1.5;;
49900;SDS011;35789;48.414;12.768;2023-09-19T14:30:00;4.0;;;1.4;;
49900;SDS011;35789;48.414;12.768;2023-09-19T14:35:00;4.0;;;1.4;;
49900;SDS011;35789;48.414;12.768;2023-09-19T14:40:00;4.0;;;1.4;;
49900;SDS011;35789;48.414;12.768;2023-09-19T14:45:00;4.0;;;1.4;;
49900;SDS011;35789;48.414;12.768;2023-09-19T14:50:01;4.0;;;1.4;;
49900;SDS011;35789;48.414;12.768;2023-09-19T14:55:00;4.0;;;1.4;;
49900;SDS011;35789;48.414;12.768;2023-09-19T15:00:00;3.3;;;1.3;;
49900;SDS011;35789;48.414;12.768;2023-09-19T15:05:00;3.3;;;1.3;;
49900;SDS011;35789;48.414;12.768;2023-09-19T15:10:00;3.3;;;1.3;;
49900;SDS011;35789;48.414;12.768;2023-09-19T15:15:02;3.3;;;1.3;;
49900;SDS011;35789;48.414;12.768;2023-09-19T15:20:00;3.3;;;1.3;;
49900;SDS011;35789;48.414;12.768;2023-09-19T15:25:00;3.3;;;1.3;;
49900;SDS011;35789;48.414;12.768;2023-09-19T15:30:00;4.0;;;1.5;;
49900;SDS011;35789;48.414;12.768;2023-09-19T15:35:00;4.0;;;1.5;;
49900;SDS011;35789;48.414;12.768;2023-09-19T15:40:00;4.0;;;1.5;;
49900;SDS011;35789;48.414;12.768;2023-09-19T15:45:00;4.0;;;1.5;;
49900;SDS011;35789;48.414;12.768;2023-09-19T15:50:00;4.0;;;1.5;;
49900;SDS011;35789;48.414;12.768;2023-09-19T15:55:02;4.0;;;1.5;;
49900;SDS011;35789;48.414;12.768;2023-09-19T16:00:00;4.0;;;1.5;;
49900;SDS011;35789;48.414;12.768;2023-09-19T16:05:00;4.0;;;1.5;;
49900;SDS011;35789;48.414;12.768;2023-09-19T16:10:02;4.0;;;1.5;;
49900;SDS011;35789;48.414;12.768;2023-09-19T16:15:00;4.0;;;1.5;;
49900;SDS011;35789;48.414;12.768;2023-09-19T16:20:00;4.0;;;1.5;;
49900;SDS011;35789;48.414;12.768;2023-09-19T16:25:00;4.0;;;1.5;;
49900;SDS011;35789;48.414;12.768;2023-09-19T16:30:00;5.5;;;1.7;;
49900;SDS011;35789;48.414;12.768;2023-09-19T16:35:00;5.5;;;1.7;;
49900;SDS011;35789;48.414;12.768;2023-09-19T16:40:00;5.5;;;1.7;;
49900;SDS011;35789;48.414;12.768;2023-09-19T16:45:00;5.5;;;1.7;;
49900;SDS011;35789;48.414;12.768;2023-09-19T16:50:00;5.5;;;1.7;;
49900;SDS011;35789;48.414;12.768;2023-09-19T16:55:00;5.5;;;1.7;;
49900;SDS011;35789;48.414;12.768;2023-09-19T17:00:00;3.5;;;1.9;;
49900;SDS011;35789;48.414;12.768;2023-09-19T17:05:00;3.5;;;1.9;;
49900;SDS011;35789;48.414;12.768;2023-09-19T17:10:00;3.5;;;1.9;;
49900;SDS011;35789;48.414;12.768;2023-09-19T17:15:00;3.5;;;1.9;;
49900;SDS011;35789;48.414;12.768;2023-09-19T17:20:00;3.5;;;1.9;;
49900;SDS011;35789;48.414;12.768;2023-09-19T17:25:00;3.5;;;1.9;;
49900;SDS011;35789;48.414;12.768;2023-09-19T17:30:00;5.9;;;1.8;;
49900;SDS011;35789;48.414;12.768;2023-09-19T17:35:00;5.9;;;1.8;;
49900;SDS011;35789;48.414;12.768;2023-09-19T17:40:00;5.9;;;1.8;;
49900;SDS011;35789;48.414;12.768;2023-09-19T17:45:00;5.9;;;1.8;;
49900;SDS011;35789;48.414;12.768;2023-09-19T17:50:00;5.9;;;1.8;;
49900;SDS011;35789;48.414;12.768;2023-09-19T17:55:00;5.9;;;1.8;;
49900;SDS011;35789;48.414;12.768;2023-09-19T18:00:00;5.8;;;1.8;;
49900;SDS011;35789;48.414;12.768;2023-09-19T18:05:00;5.8;;;1.8;;
49900;SDS011;35789;48.414;12.768;2023-09-19T18:10:00;5.8;;;1.8;;
49900;SDS011;35789;48.414;12.768;2023-09-19T18:15:00;5.8;;;1.8;;
49900;SDS011;35789;48.414;12.768;2023-09-19T18:20:00;5.8;;;1.8;;
49900;SDS011;35789;48.414;12.768;2023-09-19T18:25:00;5.8;;;1.8;;
49900;SDS011;35789;48.414;12.768;2023-09-19T18:30:00;4.7;;;1.7;;
49900;SDS011;35789;48.414;12.768;2023-09-19T18:35:00;4.7;;;1.7;;
49900;SDS011;35789;48.414;12.768;2023-09-19T18:40:00;4.7;;;1.7;;
49900;SDS011;35789;48.414;12.768;2023-09-19T18:45:00;4.7;;;1.7;;
49900;SDS011;35789;48.414;12.768;2023-09-19T18:50:01;4.7;;;1.7;;
49900;SDS011;35789;48.414;12.768;2023-09-19T18:55:00;4.7;;;1.7;;
49900;SDS011;35789;48.414;12.768;2023-09-19T19:00:00;5.3;;;1.8;;
49900;SDS011;35789;48.414;12.768;2023-09-19T19:05:00;5.3;;;1.8;;
49900;SDS011;35789;48.414;12.768;2023-09-19T19:10:00;5.3;;;1.8;;
49900;SDS011;35789;48.414;12.768;2023-09-19T19:15:00;5.3;;;1.8;;
49900;SDS011;35789;48.414;12.768;2023-09-19T19:20:00;5.3;;;1.8;;
49900;SDS011;35789;48.414;12.768;2023-09-19T19:25:00;5.3;;;1.8;;
49900;SDS011;35789;48.414;12.768;2023-09-19T19:30:00;4.3;;;1.6;;
49900;SDS011;35789;48.414;12.768;2023-09-19T19:35:00;4.3;;;1.6;;
49900;SDS011;35789;48.414;12.768;2023-09-19T19:40:00;4.3;;;1.6;;
49900;SDS011;35789;48.414;12.768;2023-09-19T19:45:00;4.3;;;1.6;;
49900;SDS011;35789;48.414;12.768;2023-09-19T19:50:00;4.3;;;1.6;;
49900;SDS011;35789;48.414;12.768;2023-09-19T19:55:00;4.3;;;1.6;;
49900;SDS011;35789;48.414;12.768;2023-09-19T20:00:00;6.1;;;1.9;;
49900;SDS011;35789;48.414;12.768;2023-09-19T20:05:00;6.1;;;1.9;;
49900;SDS011;35789;48.414;12.768;2023-09-19T20:10:00;6.1;;;1.9;;
49900;SDS011;35789;48.414;12.768;2023-09-19T20:15:00;6.1;;;1.9;;
49900;SDS011;35789;48.414;12.768;2023-09-19T20:20:00;6.1;;;1.9;;
49900;SDS011;35789;48.414;12.768;2023-09-19T20:25:00;6.1;;;1.9;;
49900;SDS011;35789;48.414;12.768;2023-09-19T20:30:00;4.5;;;1.9;;
49900;SDS011;35789;48.414;12.768;2023-09-19T20:35:00;4.5;;;1.9;;
49900;SDS011;35789;48.414;12.768;2023-09-19T20:40:00;4.5;;;1.9;;
49900;SDS011;35789;48.414;12.768;2023-09-19T20:45:00;4.5;;;1.9;;
49900;SDS011;35789;48.414;12.768;2023-09-19T20:50:00;4.5;;;1.9;;
49900;SDS011;35789;48.414;12.768;2023-09-19T20:55:00;4.5;;;1.9;;
49900;SDS011;35789;48.414;12.768;2023-09-19T21:00:00;4.3;;;1.6;;
49900;SDS011;35789;48.414;12.768;2023-09-19T21:05:00;4.3;;;1.6;;
49900;SDS011;35789;48.414;12.768;2023-09-19T21:10:01;4.3;;;1.6;;
49900;SDS011;35789;48.414;12.768;2023-09-19T21:15:00;4.3;;;1.6;;
49900;SDS011;35789;48.414;12.768;2023-09-19T21:20:00;4.3;;;1.6;;
49900;SDS011;35789;48.414;12.768;2023-09-19T21:25:00;4.3;;;1.6;;
49900;SDS011;35789;48.414;12.768;2023-09-19T21:30:00;4.7;;;1.8;;
49900;SDS011;35789;48.414;12.768;2023-09-19T21:35:00;4.7;;;1.8;;
49900;SDS011;35789;48.414;12.768;2023-09-19T21:40:00;4.7;;;1.8;;
49900;SDS011;35789;48.414;12.768;2023-09-19T21:45:00;4.7;;;1.8;;
49900;SDS011;35789;48.414;12.768;2023-09-19T21:50:00;4.7;;;1.8;;
49900;SDS011;35789;48.414;12.768;2023-09-19T21:55:00;4.7;;;1.8;;
49900;SDS011;35789;48.414;12.768;2023-09-19T22:00:00;4.8;;;2.1;;
49900;SDS011;35789;48.414;12.768;2023-09-19T22:05:00;4.8;;;2.1;;
49900;SDS011;35789;48.414;12.768;2023-09-19T22:10:00;4.8;;;2.1;;
49900;SDS011;35789;48.414;12.768;2023-09-19T22:15:00;4.8;;;2.1;;
49900;SDS011;35789;48.414;12.768;2023-09-19T22:20:00;4.8;;;2.1;;
49900;SDS011;35789;48.414;12.768;2023-09-19T22:25:00;4.8;;;2.1;;
49900;SDS011;35789;48.414;12.768;2023-09-19T22:30:00;4.7;;;2.0;;
49900;SDS011;35789;48.414;12.768;2023-09-19T22:35:00;4.7;;;2.0;;
49900;SDS011;35789;48.414;12.768;2023-09-19T22:40:00;4.7;;;2.0;;
49900;SDS011;35789;48.414;12.768;2023-09-19T22:45:00;4.7;;;2.0;;
49900;SDS011;35789;48.414;12.768;2023-09-19T22:50:00;4.7;;;2.0;;
49900;SDS011;35789;48.414;12.768;2023-09-19T22:55:00;4.7;;;2.0;;
49900;SDS011;35789;48.414;12.768;2023-09-19T23:00:00;5.6;;;2.3;;
49900;SDS011;35789;48.414;12.768;2023-09-19T23:05:00;5.6;;;2.3;;
49900;SDS011;35789;48.414;12.768;2023-09-19T23:10:00;5.6;;;2.3;;
49900;SDS011;35789;48.414;12.768;2023-09-19T23:15:00;5.6;;;2.3;;
49900;SDS011;35789;48.414;12.768;2023-09-19T23:20:00;5.6;;;2.3;;
49900;SDS011;35789;48.414;12.768;2023-09-19T23:25:00;5.6;;;2.3;;
49900;SDS011;35789;48.414;12.768;2023-09-19T23:30:00;6.7;;;2.3;;
49900;SDS011;35789;48.414;12.768;2023-09-19T23:35:00;6.7;;;2.3;;
49900;SDS011;35789;48.414;12.768;2023-09-19T23:40:00;6.7;;;2.3;;
49900;SDS011;35789;48.414;12.768;2023-09-19T23:45:00;6.7;;;2.3;;
49900;SDS011;35789;48.414;12.768;2023-09-19T23:50:00;6.7;;;2.3;;
49900;SDS011;35789;48.414;12.768;2023-09-19T23:55:00;6.7;;;2.3;;
